sensor_id;sensor_type;location;lat;lon;timestamp;P1;durP1;ratioP1;P2;durP2;ratioP2
77322;SDS011;66384;51.052;9.850;2023-07-20T00:00:15;3.00;;;1.80;;
77322;SDS011;66384;51.052;9.850;2023-07-20T00:03:25;2.70;;;2.00;;
77322;SDS011;66384;51.052;9.850;2023-07-20T00:05:56;4.30;;;2.00;;
77322;SDS011;66384;51.052;9.850;2023-07-20T00:08:28;3.50;;;2.10;;
77322;SDS011;66384;51.052;9.850;2023-07-20T00:11:00;5.40;;;2.30;;
77322;SDS011;66384;51.052;9.850;2023-07-20T00:13:32;2.70;;;1.90;;
77322;SDS011;66384;51.052;9.850;2023-07-20T00:16:04;3.50;;;1.90;;
77322;SDS011;66384;51.052;9.850;2023-07-20T00:18:36;3.60;;;2.10;;
77322;SDS011;66384;51.052;9.850;2023-07-20T00:21:08;3.40;;;2.10;;
77322;SDS011;66384;51.052;9.850;2023-07-20T00:23:40;2.80;;;1.80;;
77322;SDS011;66384;51.052;9.850;2023-07-20T00:26:12;3.50;;;2.20;;
77322;SDS011;66384;51.052;9.850;2023-07-20T00:28:43;5.80;;;1.90;;
77322;SDS011;66384;51.052;9.850;2023-07-20T00:31:15;3.40;;;1.90;;
77322;SDS011;66384;51.052;9.850;2023-07-20T00:33:47;3.50;;;2.20;;
77322;SDS011;66384;51.052;9.850;2023-07-20T00:36:18;3.40;;;2.00;;
77322;SDS011;66384;51.052;9.850;2023-07-20T00:38:50;3.30;;;2.10;;
77322;SDS011;66384;51.052;9.850;2023-07-20T00:41:22;2.90;;;2.10;;
77322;SDS011;66384;51.052;9.850;2023-07-20T00:43:53;2.60;;;2.00;;
77322;SDS011;66384;51.052;9.850;2023-07-20T00:46:25;2.80;;;1.90;;
77322;SDS011;66384;51.052;9.850;2023-07-20T00:48:57;5.00;;;2.40;;
77322;SDS011;66384;51.052;9.850;2023-07-20T00:51:28;3.90;;;2.70;;
77322;SDS011;66384;51.052;9.850;2023-07-20T00:54:00;2.50;;;2.20;;
77322;SDS011;66384;51.052;9.850;2023-07-20T00:56:32;2.50;;;2.00;;
77322;SDS011;66384;51.052;9.850;2023-07-20T00:59:03;3.10;;;2.20;;
77322;SDS011;66384;51.052;9.850;2023-07-20T01:01:36;4.30;;;2.10;;
77322;SDS011;66384;51.052;9.850;2023-07-20T01:04:07;3.20;;;2.20;;
77322;SDS011;66384;51.052;9.850;2023-07-20T01:06:41;2.60;;;2.10;;
77322;SDS011;66384;51.052;9.850;2023-07-20T01:09:23;3.60;;;2.30;;
77322;SDS011;66384;51.052;9.850;2023-07-20T01:12:02;3.60;;;2.50;;
77322;SDS011;66384;51.052;9.850;2023-07-20T01:14:38;3.90;;;2.80;;
77322;SDS011;66384;51.052;9.850;2023-07-20T01:17:10;3.10;;;2.30;;
77322;SDS011;66384;51.052;9.850;2023-07-20T01:19:42;3.30;;;2.50;;
77322;SDS011;66384;51.052;9.850;2023-07-20T01:22:19;4.30;;;2.40;;
77322;SDS011;66384;51.052;9.850;2023-07-20T01:25:08;2.70;;;2.10;;
77322;SDS011;66384;51.052;9.850;2023-07-20T01:30:52;3.60;;;2.40;;
77322;SDS011;66384;51.052;9.850;2023-07-20T01:33:29;2.20;;;1.90;;
77322;SDS011;66384;51.052;9.850;2023-07-20T01:36:03;2.90;;;2.00;;
77322;SDS011;66384;51.052;9.850;2023-07-20T01:38:36;2.80;;;1.90;;
77322;SDS011;66384;51.052;9.850;2023-07-20T01:41:08;3.60;;;2.30;;
77322;SDS011;66384;51.052;9.850;2023-07-20T01:43:40;3.60;;;2.40;;
77322;SDS011;66384;51.052;9.850;2023-07-20T01:46:12;5.00;;;2.30;;
77322;SDS011;66384;51.052;9.850;2023-07-20T01:48:43;2.70;;;2.10;;
77322;SDS011;66384;51.052;9.850;2023-07-20T01:51:15;3.30;;;2.60;;
77322;SDS011;66384;51.052;9.850;2023-07-20T01:53:47;5.50;;;3.40;;
77322;SDS011;66384;51.052;9.850;2023-07-20T01:56:19;4.50;;;3.70;;
77322;SDS011;66384;51.052;9.850;2023-07-20T01:58:51;5.40;;;3.00;;
77322;SDS011;66384;51.052;9.850;2023-07-20T02:01:22;4.50;;;3.30;;
77322;SDS011;66384;51.052;9.850;2023-07-20T02:03:57;3.50;;;2.70;;
77322;SDS011;66384;51.052;9.850;2023-07-20T02:06:28;6.90;;;2.80;;
77322;SDS011;66384;51.052;9.850;2023-07-20T02:09:01;3.50;;;2.10;;
77322;SDS011;66384;51.052;9.850;2023-07-20T02:11:33;4.30;;;2.50;;
77322;SDS011;66384;51.052;9.850;2023-07-20T02:14:04;4.60;;;2.40;;
77322;SDS011;66384;51.052;9.850;2023-07-20T02:16:36;3.00;;;2.10;;
77322;SDS011;66384;51.052;9.850;2023-07-20T02:19:07;3.10;;;2.30;;
77322;SDS011;66384;51.052;9.850;2023-07-20T02:21:39;4.40;;;2.40;;
77322;SDS011;66384;51.052;9.850;2023-07-20T02:24:11;2.70;;;2.20;;
77322;SDS011;66384;51.052;9.850;2023-07-20T02:26:43;3.30;;;2.30;;
77322;SDS011;66384;51.052;9.850;2023-07-20T02:29:15;2.80;;;2.20;;
77322;SDS011;66384;51.052;9.850;2023-07-20T02:31:46;4.60;;;2.00;;
77322;SDS011;66384;51.052;9.850;2023-07-20T02:34:17;2.80;;;2.30;;
77322;SDS011;66384;51.052;9.850;2023-07-20T02:36:49;4.50;;;2.60;;
77322;SDS011;66384;51.052;9.850;2023-07-20T02:39:20;3.60;;;2.40;;
77322;SDS011;66384;51.052;9.850;2023-07-20T02:41:52;4.10;;;2.50;;
77322;SDS011;66384;51.052;9.850;2023-07-20T02:44:23;3.40;;;2.40;;
77322;SDS011;66384;51.052;9.850;2023-07-20T02:46:55;3.20;;;2.40;;
77322;SDS011;66384;51.052;9.850;2023-07-20T02:49:27;4.80;;;2.70;;
77322;SDS011;66384;51.052;9.850;2023-07-20T02:51:58;3.30;;;2.80;;
77322;SDS011;66384;51.052;9.850;2023-07-20T02:54:30;3.20;;;2.70;;
77322;SDS011;66384;51.052;9.850;2023-07-20T02:57:01;5.70;;;3.30;;
77322;SDS011;66384;51.052;9.850;2023-07-20T02:59:33;3.30;;;2.80;;
77322;SDS011;66384;51.052;9.850;2023-07-20T03:02:06;5.50;;;3.20;;
77322;SDS011;66384;51.052;9.850;2023-07-20T03:04:39;5.10;;;3.00;;
77322;SDS011;66384;51.052;9.850;2023-07-20T03:07:11;4.20;;;3.10;;
77322;SDS011;66384;51.052;9.850;2023-07-20T03:09:42;3.50;;;3.00;;
77322;SDS011;66384;51.052;9.850;2023-07-20T03:12:14;3.90;;;3.10;;
77322;SDS011;66384;51.052;9.850;2023-07-20T03:14:46;4.50;;;3.10;;
77322;SDS011;66384;51.052;9.850;2023-07-20T03:17:17;4.20;;;2.90;;
77322;SDS011;66384;51.052;9.850;2023-07-20T03:19:49;7.40;;;3.40;;
77322;SDS011;66384;51.052;9.850;2023-07-20T03:22:21;4.80;;;3.20;;
77322;SDS011;66384;51.052;9.850;2023-07-20T03:24:53;4.60;;;3.10;;
77322;SDS011;66384;51.052;9.850;2023-07-20T03:27:24;4.40;;;3.30;;
77322;SDS011;66384;51.052;9.850;2023-07-20T03:29:57;4.20;;;2.70;;
77322;SDS011;66384;51.052;9.850;2023-07-20T03:32:29;4.90;;;3.00;;
77322;SDS011;66384;51.052;9.850;2023-07-20T03:35:00;4.10;;;2.90;;
77322;SDS011;66384;51.052;9.850;2023-07-20T03:37:33;4.00;;;3.00;;
77322;SDS011;66384;51.052;9.850;2023-07-20T03:40:06;3.80;;;2.50;;
77322;SDS011;66384;51.052;9.850;2023-07-20T03:42:39;4.00;;;2.40;;
77322;SDS011;66384;51.052;9.850;2023-07-20T03:45:11;4.30;;;2.60;;
77322;SDS011;66384;51.052;9.850;2023-07-20T03:47:42;6.60;;;2.80;;
77322;SDS011;66384;51.052;9.850;2023-07-20T03:50:15;2.90;;;2.40;;
77322;SDS011;66384;51.052;9.850;2023-07-20T03:52:47;4.30;;;2.70;;
77322;SDS011;66384;51.052;9.850;2023-07-20T03:55:18;4.10;;;3.10;;
77322;SDS011;66384;51.052;9.850;2023-07-20T03:57:50;4.60;;;3.10;;
77322;SDS011;66384;51.052;9.850;2023-07-20T04:00:22;3.90;;;2.50;;
77322;SDS011;66384;51.052;9.850;2023-07-20T04:02:53;4.40;;;2.80;;
77322;SDS011;66384;51.052;9.850;2023-07-20T04:05:25;3.50;;;2.50;;
77322;SDS011;66384;51.052;9.850;2023-07-20T04:07:56;3.40;;;2.70;;
77322;SDS011;66384;51.052;9.850;2023-07-20T04:10:28;4.10;;;2.90;;
77322;SDS011;66384;51.052;9.850;2023-07-20T04:13:00;5.40;;;3.10;;
77322;SDS011;66384;51.052;9.850;2023-07-20T04:15:31;4.10;;;3.00;;
77322;SDS011;66384;51.052;9.850;2023-07-20T04:18:03;4.00;;;3.20;;
77322;SDS011;66384;51.052;9.850;2023-07-20T04:20:35;6.30;;;2.90;;
77322;SDS011;66384;51.052;9.850;2023-07-20T04:23:06;3.70;;;2.60;;
77322;SDS011;66384;51.052;9.850;2023-07-20T04:25:40;4.70;;;2.80;;
77322;SDS011;66384;51.052;9.850;2023-07-20T04:28:11;3.90;;;3.10;;
77322;SDS011;66384;51.052;9.850;2023-07-20T04:30:43;4.40;;;3.60;;
77322;SDS011;66384;51.052;9.850;2023-07-20T04:33:14;5.00;;;2.80;;
77322;SDS011;66384;51.052;9.850;2023-07-20T04:35:47;4.40;;;3.00;;
77322;SDS011;66384;51.052;9.850;2023-07-20T04:38:20;3.50;;;2.70;;
77322;SDS011;66384;51.052;9.850;2023-07-20T04:40:52;3.40;;;3.10;;
77322;SDS011;66384;51.052;9.850;2023-07-20T04:43:24;3.70;;;2.80;;
77322;SDS011;66384;51.052;9.850;2023-07-20T04:45:56;3.70;;;2.90;;
77322;SDS011;66384;51.052;9.850;2023-07-20T04:48:28;3.90;;;3.00;;
77322;SDS011;66384;51.052;9.850;2023-07-20T04:50:59;3.40;;;2.80;;
77322;SDS011;66384;51.052;9.850;2023-07-20T04:53:31;8.90;;;5.60;;
77322;SDS011;66384;51.052;9.850;2023-07-20T04:56:02;5.40;;;4.30;;
77322;SDS011;66384;51.052;9.850;2023-07-20T04:58:34;3.80;;;3.20;;
77322;SDS011;66384;51.052;9.850;2023-07-20T05:01:06;4.30;;;3.00;;
77322;SDS011;66384;51.052;9.850;2023-07-20T05:03:37;5.60;;;3.00;;
77322;SDS011;66384;51.052;9.850;2023-07-20T05:06:09;3.70;;;3.30;;
77322;SDS011;66384;51.052;9.850;2023-07-20T05:08:41;4.90;;;3.40;;
77322;SDS011;66384;51.052;9.850;2023-07-20T05:11:13;4.50;;;3.10;;
77322;SDS011;66384;51.052;9.850;2023-07-20T05:13:44;4.30;;;3.40;;
77322;SDS011;66384;51.052;9.850;2023-07-20T05:16:16;4.70;;;3.10;;
77322;SDS011;66384;51.052;9.850;2023-07-20T05:18:48;3.30;;;3.00;;
77322;SDS011;66384;51.052;9.850;2023-07-20T05:21:20;4.40;;;3.60;;
77322;SDS011;66384;51.052;9.850;2023-07-20T05:23:51;4.80;;;2.90;;
77322;SDS011;66384;51.052;9.850;2023-07-20T05:26:23;4.40;;;3.40;;
77322;SDS011;66384;51.052;9.850;2023-07-20T05:28:54;5.00;;;3.70;;
77322;SDS011;66384;51.052;9.850;2023-07-20T05:31:25;9.40;;;4.20;;
77322;SDS011;66384;51.052;9.850;2023-07-20T05:33:59;4.50;;;3.60;;
77322;SDS011;66384;51.052;9.850;2023-07-20T05:36:31;6.20;;;5.60;;
77322;SDS011;66384;51.052;9.850;2023-07-20T05:39:02;5.30;;;4.40;;
77322;SDS011;66384;51.052;9.850;2023-07-20T05:41:34;5.00;;;3.60;;
77322;SDS011;66384;51.052;9.850;2023-07-20T05:44:06;4.50;;;3.40;;
77322;SDS011;66384;51.052;9.850;2023-07-20T05:46:37;4.20;;;3.10;;
77322;SDS011;66384;51.052;9.850;2023-07-20T05:49:25;5.50;;;3.50;;
77322;SDS011;66384;51.052;9.850;2023-07-20T05:51:56;7.00;;;3.90;;
77322;SDS011;66384;51.052;9.850;2023-07-20T05:54:29;4.50;;;3.70;;
77322;SDS011;66384;51.052;9.850;2023-07-20T05:57:01;4.70;;;3.50;;
77322;SDS011;66384;51.052;9.850;2023-07-20T05:59:33;8.50;;;5.50;;
77322;SDS011;66384;51.052;9.850;2023-07-20T06:02:05;4.70;;;3.70;;
77322;SDS011;66384;51.052;9.850;2023-07-20T06:04:38;5.30;;;2.90;;
77322;SDS011;66384;51.052;9.850;2023-07-20T06:07:10;6.20;;;5.20;;
77322;SDS011;66384;51.052;9.850;2023-07-20T06:09:42;5.70;;;4.20;;
77322;SDS011;66384;51.052;9.850;2023-07-20T06:12:13;5.10;;;3.70;;
77322;SDS011;66384;51.052;9.850;2023-07-20T06:14:45;6.30;;;4.80;;
77322;SDS011;66384;51.052;9.850;2023-07-20T06:17:16;4.90;;;4.20;;
77322;SDS011;66384;51.052;9.850;2023-07-20T06:19:48;5.00;;;4.50;;
77322;SDS011;66384;51.052;9.850;2023-07-20T06:22:19;7.00;;;4.70;;
77322;SDS011;66384;51.052;9.850;2023-07-20T06:24:51;7.10;;;5.10;;
77322;SDS011;66384;51.052;9.850;2023-07-20T06:27:23;7.20;;;5.00;;
77322;SDS011;66384;51.052;9.850;2023-07-20T06:29:54;6.20;;;4.20;;
77322;SDS011;66384;51.052;9.850;2023-07-20T06:32:26;5.80;;;5.10;;
77322;SDS011;66384;51.052;9.850;2023-07-20T06:34:58;5.40;;;4.40;;
77322;SDS011;66384;51.052;9.850;2023-07-20T06:37:29;7.90;;;5.00;;
77322;SDS011;66384;51.052;9.850;2023-07-20T06:40:01;7.40;;;4.00;;
77322;SDS011;66384;51.052;9.850;2023-07-20T06:42:37;6.30;;;4.60;;
77322;SDS011;66384;51.052;9.850;2023-07-20T06:45:11;5.70;;;5.00;;
77322;SDS011;66384;51.052;9.850;2023-07-20T06:47:43;6.60;;;5.10;;
77322;SDS011;66384;51.052;9.850;2023-07-20T06:50:15;6.10;;;5.20;;
77322;SDS011;66384;51.052;9.850;2023-07-20T06:52:47;7.00;;;4.00;;
77322;SDS011;66384;51.052;9.850;2023-07-20T06:55:19;6.50;;;4.60;;
77322;SDS011;66384;51.052;9.850;2023-07-20T06:57:51;5.80;;;4.60;;
77322;SDS011;66384;51.052;9.850;2023-07-20T07:00:27;4.70;;;3.90;;
77322;SDS011;66384;51.052;9.850;2023-07-20T07:02:58;7.60;;;5.10;;
77322;SDS011;66384;51.052;9.850;2023-07-20T07:05:31;5.50;;;3.90;;
77322;SDS011;66384;51.052;9.850;2023-07-20T07:08:05;4.70;;;3.60;;
77322;SDS011;66384;51.052;9.850;2023-07-20T07:10:37;5.60;;;4.30;;
77322;SDS011;66384;51.052;9.850;2023-07-20T07:13:09;4.20;;;3.30;;
77322;SDS011;66384;51.052;9.850;2023-07-20T07:15:41;4.50;;;3.70;;
77322;SDS011;66384;51.052;9.850;2023-07-20T07:18:14;4.40;;;3.10;;
77322;SDS011;66384;51.052;9.850;2023-07-20T07:20:52;4.60;;;3.90;;
77322;SDS011;66384;51.052;9.850;2023-07-20T07:23:24;4.50;;;3.70;;
77322;SDS011;66384;51.052;9.850;2023-07-20T07:25:56;6.50;;;3.80;;
77322;SDS011;66384;51.052;9.850;2023-07-20T07:28:28;4.70;;;3.60;;
77322;SDS011;66384;51.052;9.850;2023-07-20T07:31:00;4.80;;;3.30;;
77322;SDS011;66384;51.052;9.850;2023-07-20T07:33:35;5.10;;;3.60;;
77322;SDS011;66384;51.052;9.850;2023-07-20T07:36:07;4.50;;;3.40;;
77322;SDS011;66384;51.052;9.850;2023-07-20T07:38:38;5.90;;;4.00;;
77322;SDS011;66384;51.052;9.850;2023-07-20T07:41:13;7.20;;;4.90;;
77322;SDS011;66384;51.052;9.850;2023-07-20T07:43:45;5.10;;;4.60;;
77322;SDS011;66384;51.052;9.850;2023-07-20T07:46:16;5.70;;;5.20;;
77322;SDS011;66384;51.052;9.850;2023-07-20T07:48:48;6.80;;;5.10;;
77322;SDS011;66384;51.052;9.850;2023-07-20T07:51:20;7.90;;;5.40;;
77322;SDS011;66384;51.052;9.850;2023-07-20T07:53:51;5.70;;;5.00;;
77322;SDS011;66384;51.052;9.850;2023-07-20T07:56:24;6.70;;;4.60;;
77322;SDS011;66384;51.052;9.850;2023-07-20T07:58:55;6.40;;;5.00;;
77322;SDS011;66384;51.052;9.850;2023-07-20T08:01:27;7.60;;;4.70;;
77322;SDS011;66384;51.052;9.850;2023-07-20T08:03:58;6.80;;;4.40;;
77322;SDS011;66384;51.052;9.850;2023-07-20T08:06:30;6.20;;;4.50;;
77322;SDS011;66384;51.052;9.850;2023-07-20T08:09:02;6.70;;;4.90;;
77322;SDS011;66384;51.052;9.850;2023-07-20T08:11:33;5.20;;;4.10;;
77322;SDS011;66384;51.052;9.850;2023-07-20T08:14:05;4.50;;;3.90;;
77322;SDS011;66384;51.052;9.850;2023-07-20T08:16:36;5.20;;;4.00;;
77322;SDS011;66384;51.052;9.850;2023-07-20T08:19:08;5.20;;;4.40;;
77322;SDS011;66384;51.052;9.850;2023-07-20T08:21:40;5.00;;;4.40;;
77322;SDS011;66384;51.052;9.850;2023-07-20T08:24:11;5.30;;;4.10;;
77322;SDS011;66384;51.052;9.850;2023-07-20T08:26:43;6.20;;;5.40;;
77322;SDS011;66384;51.052;9.850;2023-07-20T08:29:15;4.80;;;4.00;;
77322;SDS011;66384;51.052;9.850;2023-07-20T08:31:46;5.50;;;4.60;;
77322;SDS011;66384;51.052;9.850;2023-07-20T08:34:18;6.30;;;3.60;;
77322;SDS011;66384;51.052;9.850;2023-07-20T08:36:59;5.40;;;3.70;;
77322;SDS011;66384;51.052;9.850;2023-07-20T08:39:31;5.80;;;4.00;;
77322;SDS011;66384;51.052;9.850;2023-07-20T08:42:04;4.10;;;3.70;;
77322;SDS011;66384;51.052;9.850;2023-07-20T08:44:37;5.90;;;4.00;;
77322;SDS011;66384;51.052;9.850;2023-07-20T08:47:11;4.50;;;4.10;;
77322;SDS011;66384;51.052;9.850;2023-07-20T08:49:43;4.20;;;3.60;;
77322;SDS011;66384;51.052;9.850;2023-07-20T08:52:18;6.20;;;4.00;;
77322;SDS011;66384;51.052;9.850;2023-07-20T08:54:49;4.70;;;3.80;;
77322;SDS011;66384;51.052;9.850;2023-07-20T08:57:22;3.90;;;3.50;;
77322;SDS011;66384;51.052;9.850;2023-07-20T08:59:54;4.20;;;3.40;;
77322;SDS011;66384;51.052;9.850;2023-07-20T09:02:26;4.80;;;3.20;;
77322;SDS011;66384;51.052;9.850;2023-07-20T09:04:58;4.10;;;3.20;;
77322;SDS011;66384;51.052;9.850;2023-07-20T09:07:30;5.40;;;3.20;;
77322;SDS011;66384;51.052;9.850;2023-07-20T09:10:04;5.70;;;3.30;;
77322;SDS011;66384;51.052;9.850;2023-07-20T09:12:37;5.80;;;3.30;;
77322;SDS011;66384;51.052;9.850;2023-07-20T09:15:10;4.00;;;3.10;;
77322;SDS011;66384;51.052;9.850;2023-07-20T09:17:46;8.10;;;5.40;;
77322;SDS011;66384;51.052;9.850;2023-07-20T09:20:18;5.10;;;3.60;;
77322;SDS011;66384;51.052;9.850;2023-07-20T09:22:51;4.30;;;3.00;;
77322;SDS011;66384;51.052;9.850;2023-07-20T09:25:24;5.10;;;3.70;;
77322;SDS011;66384;51.052;9.850;2023-07-20T09:28:01;3.80;;;2.60;;
77322;SDS011;66384;51.052;9.850;2023-07-20T09:30:34;3.70;;;3.00;;
77322;SDS011;66384;51.052;9.850;2023-07-20T09:33:07;4.90;;;3.50;;
77322;SDS011;66384;51.052;9.850;2023-07-20T09:35:53;3.60;;;2.70;;
77322;SDS011;66384;51.052;9.850;2023-07-20T09:38:51;3.20;;;2.60;;
77322;SDS011;66384;51.052;9.850;2023-07-20T09:41:26;3.20;;;2.50;;
77322;SDS011;66384;51.052;9.850;2023-07-20T09:44:00;4.90;;;2.90;;
77322;SDS011;66384;51.052;9.850;2023-07-20T09:46:52;5.80;;;2.60;;
77322;SDS011;66384;51.052;9.850;2023-07-20T09:49:28;3.70;;;2.90;;
77322;SDS011;66384;51.052;9.850;2023-07-20T09:52:19;6.70;;;5.00;;
77322;SDS011;66384;51.052;9.850;2023-07-20T09:54:54;11.30;;;9.50;;
77322;SDS011;66384;51.052;9.850;2023-07-20T09:57:27;15.40;;;12.10;;
77322;SDS011;66384;51.052;9.850;2023-07-20T09:59:59;16.00;;;13.60;;
77322;SDS011;66384;51.052;9.850;2023-07-20T10:02:41;15.30;;;11.50;;
77322;SDS011;66384;51.052;9.850;2023-07-20T10:05:14;25.80;;;11.50;;
77322;SDS011;66384;51.052;9.850;2023-07-20T10:07:46;23.40;;;8.80;;
77322;SDS011;66384;51.052;9.850;2023-07-20T10:10:19;20.30;;;5.90;;
77322;SDS011;66384;51.052;9.850;2023-07-20T10:12:51;14.70;;;4.60;;
77322;SDS011;66384;51.052;9.850;2023-07-20T10:15:24;9.90;;;5.10;;
77322;SDS011;66384;51.052;9.850;2023-07-20T10:18:03;10.80;;;3.90;;
77322;SDS011;66384;51.052;9.850;2023-07-20T10:23:30;5.00;;;3.40;;
77322;SDS011;66384;51.052;9.850;2023-07-20T10:26:03;4.20;;;3.40;;
77322;SDS011;66384;51.052;9.850;2023-07-20T10:28:35;12.60;;;9.10;;
77322;SDS011;66384;51.052;9.850;2023-07-20T10:31:08;13.30;;;10.50;;
77322;SDS011;66384;51.052;9.850;2023-07-20T10:33:42;15.70;;;11.60;;
77322;SDS011;66384;51.052;9.850;2023-07-20T10:36:15;4.40;;;4.00;;
77322;SDS011;66384;51.052;9.850;2023-07-20T10:38:55;6.30;;;5.60;;
77322;SDS011;66384;51.052;9.850;2023-07-20T10:41:28;4.10;;;3.30;;
77322;SDS011;66384;51.052;9.850;2023-07-20T10:44:03;6.70;;;5.60;;
77322;SDS011;66384;51.052;9.850;2023-07-20T10:46:43;3.50;;;2.90;;
77322;SDS011;66384;51.052;9.850;2023-07-20T10:49:16;6.60;;;3.40;;
77322;SDS011;66384;51.052;9.850;2023-07-20T10:51:58;3.50;;;2.40;;
77322;SDS011;66384;51.052;9.850;2023-07-20T10:54:49;10.20;;;4.30;;
77322;SDS011;66384;51.052;9.850;2023-07-20T10:57:24;3.60;;;2.60;;
77322;SDS011;66384;51.052;9.850;2023-07-20T11:00:12;4.50;;;3.30;;
77322;SDS011;66384;51.052;9.850;2023-07-20T11:02:52;3.90;;;3.40;;
77322;SDS011;66384;51.052;9.850;2023-07-20T11:05:32;5.40;;;3.90;;
77322;SDS011;66384;51.052;9.850;2023-07-20T11:08:08;7.10;;;3.90;;
77322;SDS011;66384;51.052;9.850;2023-07-20T11:10:41;5.20;;;4.40;;
77322;SDS011;66384;51.052;9.850;2023-07-20T11:13:17;5.70;;;4.10;;
77322;SDS011;66384;51.052;9.850;2023-07-20T11:16:01;4.20;;;3.20;;
77322;SDS011;66384;51.052;9.850;2023-07-20T11:18:35;5.50;;;4.50;;
77322;SDS011;66384;51.052;9.850;2023-07-20T11:21:10;4.20;;;3.60;;
77322;SDS011;66384;51.052;9.850;2023-07-20T11:23:42;4.80;;;4.30;;
77322;SDS011;66384;51.052;9.850;2023-07-20T11:26:16;8.80;;;7.90;;
77322;SDS011;66384;51.052;9.850;2023-07-20T11:28:49;7.20;;;5.80;;
77322;SDS011;66384;51.052;9.850;2023-07-20T11:31:21;11.50;;;9.80;;
77322;SDS011;66384;51.052;9.850;2023-07-20T11:33:53;3.40;;;2.60;;
77322;SDS011;66384;51.052;9.850;2023-07-20T11:36:41;5.30;;;3.70;;
77322;SDS011;66384;51.052;9.850;2023-07-20T11:39:17;3.70;;;2.80;;
77322;SDS011;66384;51.052;9.850;2023-07-20T11:41:50;4.60;;;4.10;;
77322;SDS011;66384;51.052;9.850;2023-07-20T11:44:22;3.40;;;2.50;;
77322;SDS011;66384;51.052;9.850;2023-07-20T11:47:04;2.60;;;2.40;;
77322;SDS011;66384;51.052;9.850;2023-07-20T11:49:37;3.30;;;2.60;;
77322;SDS011;66384;51.052;9.850;2023-07-20T11:52:15;5.20;;;4.50;;
77322;SDS011;66384;51.052;9.850;2023-07-20T11:54:47;6.90;;;5.60;;
77322;SDS011;66384;51.052;9.850;2023-07-20T11:57:18;5.10;;;3.70;;
77322;SDS011;66384;51.052;9.850;2023-07-20T11:59:54;6.60;;;4.40;;
77322;SDS011;66384;51.052;9.850;2023-07-20T12:02:28;8.80;;;6.80;;
77322;SDS011;66384;51.052;9.850;2023-07-20T12:05:02;8.40;;;5.00;;
77322;SDS011;66384;51.052;9.850;2023-07-20T12:07:36;8.00;;;3.80;;
77322;SDS011;66384;51.052;9.850;2023-07-20T12:10:10;8.00;;;5.30;;
77322;SDS011;66384;51.052;9.850;2023-07-20T12:12:43;4.50;;;3.30;;
77322;SDS011;66384;51.052;9.850;2023-07-20T12:15:19;5.90;;;3.00;;
77322;SDS011;66384;51.052;9.850;2023-07-20T12:17:52;5.50;;;2.70;;
77322;SDS011;66384;51.052;9.850;2023-07-20T12:20:26;2.80;;;2.20;;
77322;SDS011;66384;51.052;9.850;2023-07-20T12:22:59;2.90;;;2.30;;
77322;SDS011;66384;51.052;9.850;2023-07-20T12:25:36;4.00;;;2.60;;
77322;SDS011;66384;51.052;9.850;2023-07-20T12:28:09;2.60;;;2.20;;
77322;SDS011;66384;51.052;9.850;2023-07-20T12:30:42;2.50;;;1.80;;
77322;SDS011;66384;51.052;9.850;2023-07-20T12:33:14;2.90;;;1.80;;
77322;SDS011;66384;51.052;9.850;2023-07-20T12:35:46;3.10;;;1.70;;
77322;SDS011;66384;51.052;9.850;2023-07-20T12:38:18;3.90;;;1.60;;
77322;SDS011;66384;51.052;9.850;2023-07-20T12:40:49;2.90;;;2.30;;
77322;SDS011;66384;51.052;9.850;2023-07-20T12:43:21;2.40;;;1.80;;
77322;SDS011;66384;51.052;9.850;2023-07-20T12:45:52;1.60;;;1.40;;
77322;SDS011;66384;51.052;9.850;2023-07-20T12:48:24;2.30;;;1.90;;
77322;SDS011;66384;51.052;9.850;2023-07-20T12:50:56;5.10;;;3.20;;
77322;SDS011;66384;51.052;9.850;2023-07-20T12:53:28;6.30;;;2.80;;
77322;SDS011;66384;51.052;9.850;2023-07-20T12:56:00;2.50;;;2.10;;
77322;SDS011;66384;51.052;9.850;2023-07-20T12:58:52;1.90;;;1.70;;
77322;SDS011;66384;51.052;9.850;2023-07-20T13:01:23;3.00;;;1.90;;
77322;SDS011;66384;51.052;9.850;2023-07-20T13:03:55;2.40;;;1.80;;
77322;SDS011;66384;51.052;9.850;2023-07-20T13:06:30;2.20;;;1.70;;
77322;SDS011;66384;51.052;9.850;2023-07-20T13:09:05;1.60;;;1.40;;
77322;SDS011;66384;51.052;9.850;2023-07-20T13:11:36;1.90;;;1.70;;
77322;SDS011;66384;51.052;9.850;2023-07-20T13:14:08;2.90;;;2.30;;
77322;SDS011;66384;51.052;9.850;2023-07-20T13:16:40;2.40;;;1.90;;
77322;SDS011;66384;51.052;9.850;2023-07-20T13:19:12;2.90;;;1.70;;
77322;SDS011;66384;51.052;9.850;2023-07-20T13:21:43;3.00;;;1.80;;
77322;SDS011;66384;51.052;9.850;2023-07-20T13:24:15;3.70;;;1.50;;
77322;SDS011;66384;51.052;9.850;2023-07-20T13:26:46;2.10;;;1.80;;
77322;SDS011;66384;51.052;9.850;2023-07-20T13:29:18;2.70;;;1.70;;
77322;SDS011;66384;51.052;9.850;2023-07-20T13:31:50;2.20;;;1.50;;
77322;SDS011;66384;51.052;9.850;2023-07-20T13:34:23;2.00;;;1.30;;
77322;SDS011;66384;51.052;9.850;2023-07-20T13:37:00;1.90;;;1.30;;
77322;SDS011;66384;51.052;9.850;2023-07-20T13:39:32;1.50;;;1.10;;
77322;SDS011;66384;51.052;9.850;2023-07-20T13:42:04;1.70;;;1.40;;
77322;SDS011;66384;51.052;9.850;2023-07-20T13:44:38;1.90;;;1.10;;
77322;SDS011;66384;51.052;9.850;2023-07-20T13:47:10;2.40;;;1.90;;
77322;SDS011;66384;51.052;9.850;2023-07-20T13:49:45;2.40;;;1.70;;
77322;SDS011;66384;51.052;9.850;2023-07-20T13:52:18;2.20;;;1.70;;
77322;SDS011;66384;51.052;9.850;2023-07-20T13:54:52;2.00;;;1.50;;
77322;SDS011;66384;51.052;9.850;2023-07-20T13:57:24;2.50;;;1.70;;
77322;SDS011;66384;51.052;9.850;2023-07-20T13:59:56;2.50;;;2.00;;
77322;SDS011;66384;51.052;9.850;2023-07-20T14:02:29;1.70;;;1.10;;
77322;SDS011;66384;51.052;9.850;2023-07-20T14:05:05;2.40;;;1.80;;
77322;SDS011;66384;51.052;9.850;2023-07-20T14:07:41;1.70;;;1.50;;
77322;SDS011;66384;51.052;9.850;2023-07-20T14:10:13;2.90;;;2.30;;
77322;SDS011;66384;51.052;9.850;2023-07-20T14:12:47;2.90;;;2.20;;
77322;SDS011;66384;51.052;9.850;2023-07-20T14:15:19;2.30;;;1.80;;
77322;SDS011;66384;51.052;9.850;2023-07-20T14:17:51;1.60;;;1.20;;
77322;SDS011;66384;51.052;9.850;2023-07-20T14:20:24;2.90;;;2.00;;
77322;SDS011;66384;51.052;9.850;2023-07-20T14:22:55;1.50;;;1.30;;
77322;SDS011;66384;51.052;9.850;2023-07-20T14:25:27;1.90;;;1.60;;
77322;SDS011;66384;51.052;9.850;2023-07-20T14:27:59;1.50;;;1.20;;
77322;SDS011;66384;51.052;9.850;2023-07-20T14:30:31;6.60;;;1.40;;
77322;SDS011;66384;51.052;9.850;2023-07-20T14:33:02;3.40;;;2.50;;
77322;SDS011;66384;51.052;9.850;2023-07-20T14:35:34;13.40;;;10.10;;
77322;SDS011;66384;51.052;9.850;2023-07-20T14:38:06;10.00;;;9.00;;
77322;SDS011;66384;51.052;9.850;2023-07-20T14:40:38;14.40;;;12.70;;
77322;SDS011;66384;51.052;9.850;2023-07-20T14:43:10;9.20;;;8.00;;
77322;SDS011;66384;51.052;9.850;2023-07-20T14:45:43;5.30;;;3.20;;
77322;SDS011;66384;51.052;9.850;2023-07-20T14:48:14;6.10;;;5.00;;
77322;SDS011;66384;51.052;9.850;2023-07-20T14:50:46;4.80;;;4.20;;
77322;SDS011;66384;51.052;9.850;2023-07-20T14:53:18;7.00;;;6.00;;
77322;SDS011;66384;51.052;9.850;2023-07-20T14:55:50;6.20;;;4.70;;
77322;SDS011;66384;51.052;9.850;2023-07-20T14:58:21;2.60;;;2.10;;
77322;SDS011;66384;51.052;9.850;2023-07-20T15:00:53;3.40;;;2.00;;
77322;SDS011;66384;51.052;9.850;2023-07-20T15:03:25;3.20;;;1.50;;
77322;SDS011;66384;51.052;9.850;2023-07-20T15:05:57;3.00;;;2.30;;
77322;SDS011;66384;51.052;9.850;2023-07-20T15:08:28;2.50;;;2.10;;
77322;SDS011;66384;51.052;9.850;2023-07-20T15:11:00;4.80;;;1.90;;
77322;SDS011;66384;51.052;9.850;2023-07-20T15:13:32;3.40;;;3.00;;
77322;SDS011;66384;51.052;9.850;2023-07-20T15:16:04;3.80;;;3.40;;
77322;SDS011;66384;51.052;9.850;2023-07-20T15:18:35;4.00;;;3.20;;
77322;SDS011;66384;51.052;9.850;2023-07-20T15:21:16;3.00;;;2.10;;
77322;SDS011;66384;51.052;9.850;2023-07-20T15:23:48;2.80;;;2.50;;
77322;SDS011;66384;51.052;9.850;2023-07-20T15:26:20;6.10;;;4.60;;